Chiang Rai, Thailand

8:36 PM ICT on October 24, 2014 (GMT +0700)
Chiang Rai International | Change Station
CLOSE
Current Station
Airport
Location: Chiang Rai International,
Elevation: 1280 ft
Nearby Weather Stations

Elev 1280 ft 19.95 °N, 99.88 °E | Updated 36 minutes ago

Clear
Clear
73 °F
Feels Like 73 °F
N
0
Wind Variable Wind from North

Today
High -- | Low -- °F
--% Chance of Precip.
Yesterday
High -- | Low -- °F
Precip. -- in
6:18 AM 5:50 PM
New Moon, 0% visible
Pressure 29.92 in
Visibility -9999.0 miles
Clouds
Dew Point 70 °F
Humidity 88%
Rainfall 0.00 in
Snow Depth Not available.
UV Not available.
Pollen Not available.
Air Quality Not available.
Flu Activity Not available.
METAR VTCT 241300Z 00000KT CAVOK 23/21 Q1013 A2993 RMK/RWY03 INFO N

More Conditions Fewer Conditions

Pressure 29.92 in
Visibility -9999.0 miles
Clouds
Dew Point 70 °F
Humidity 88%
Rainfall 0.00 in
Snow Depth Not available.
UV Not available.
Pollen Not available.
Air Quality Not available.
Flu Activity Not available.
METAR VTCT 241300Z 00000KT CAVOK 23/21 Q1013 A2993 RMK/RWY03 INFO N

More Conditions Fewer Conditions

10-Day Weather Forecast

Almanac

Astronomy

Oct. 24, 2014 Rise Set
Actual Time 6:18 AM ICT 5:50 PM ICT
Civil Twilight 5:55 AM ICT 6:13 PM ICT
Nautical Twilight 5:29 AM ICT 6:39 PM ICT
Astronomical Twilight 5:04 AM ICT 7:04 PM ICT
Moon 6:25 AM ICT 6:13 PM ICT
Length of Visible Light 12h 17m
Length of Day
11h 32m
Tomorrow will be 1m 3s shorter.
New Moon, 0% of the Moon is Illuminated
Today
New Moon
Oct 30
First Quarter
Nov 6
Full
Nov 14
Last Quarter
Nov 22
New

Yesterday's Extremes

Country Highs Country Lows

Community

WunderPhotos

Upload Photos

1,764,550 photos uploaded!

WunderBlogs® & News

Nearby

Snow Depth

Not available.

Earthquake Activity

City Distance Mag. Time & Date
No recent earthquake activity has been reported nearby.
Minimum magnitude displayed is 2.5.

Coastal Water Temperatures

Place Temperature
No Stations Reporting

Nearby Weather Stations